Impacts TAF Board
For situational awareness. Not to be used for flight planning purposes.
IDs:

KORD - Chicago/O'Hare Intl, IL, US

Issued at 2336 UTC 22 Oct 2018
Updated at 0254 UTC 23 Oct 2018
Potential Impact None Slight Moderate High
Time0251Z 23/03Z 23/04Z 23/05Z 23/06Z 23/07Z 23/08Z 23/09Z 23/10Z 23/11Z 23/12Z 23/13Z 23/14Z 23/15Z>>
Type OBS PRVL PRVL PRVL PRVL PRVL PRVL PRVL PRVL PRVL PRVL PRVL PRVL PRVL
VIS 10 >6 >6 >6 >6 >6 >6 >6 >6 >6 >6 >6 >6 >6
CIG -- -- -- -- -- -- -- -- -- -- -- -- -- --
Cover CLR SKC SKC SKC SKC SKC SKC SKC SKC SKC SKC SKC SCT SCT
FltCat VFR VFR VFR VFR VFR VFR VFR VFR VFR VFR VFR VFR VFR VFR
WX -- -- -- -- -- -- -- -- -- -- -- -- -- --
WDir 250 250 250 250 310 310 310 310 310 310 310 310 340 340
WSpd 8 8 8 8 10 10 10 10 10 10 10 10 12 12
WGst -- -- -- -- -- -- -- -- -- -- -- -- -- --
Raw TAF
KORD 222336Z 2300/2406 25008KT P6SM SKC
  FM230600 31010KT P6SM SKC
  FM231400 34012KT P6SM SCT040
  FM232200 02009KT P6SM SCT040
  FM240200 36004KT P6SM FEW040


Raw METAR
KORD 230251Z 25008KT 10SM CLR 12/01 A3004 RMK AO2 SLP175 T01220011 51009
KORD 230151Z 24006KT 10SM CLR 12/01 A3004 RMK AO2 SLP174 T01220011
KORD 230051Z 25007KT 10SM CLR 13/01 A3003 RMK AO2 SLP172 T01330011
KORD 222351Z 24005KT 10SM CLR 14/00 A3002 RMK AO2 SLP167 T01440000 10178 20144 53003

METAR Board
Radar Display
Forecast Discussion
For situational awareness. Not to be used for flight planning purposes.